Guston, Kentucky
Current Conditions -  °F | °C
As of 1:58 PM on Saturday 20 Dec 2014 (Local Time) from KFTK Reporting Station
Overcast Overcast  
Wind Chill: 37°   Ceiling: 6000
Heat Index: 37°   Visibility: 10mi
Dew Point: 26°   Wind: 3mph
Humidity: 64%   Direction: NA
Pressure: 30.23"   Gusts: NA
Location:  37.89°N, 86.22°W
Report Text: KFTK 201858Z AUTO VRB03KT 10SM OVC060 03/M03 A3023 RMK AO2 SLP246 T00271034
Loading
Personal Weather Stations






























Interactive Weather Map New forecast layout! Learn more

10-Day Weather Forecast

Advertisements
Track Severe Weather on mobile